sensor_id;sensor_type;location;lat;lon;timestamp;temperature;humidity
20590;DHT22;10453;50.810;12.540;2023-04-24T00:00:20;11.70;99.90
20590;DHT22;10453;50.810;12.540;2023-04-24T00:04:37;11.70;99.90
20590;DHT22;10453;50.810;12.540;2023-04-24T00:08:59;11.70;99.90
20590;DHT22;10453;50.810;12.540;2023-04-24T00:13:17;11.70;99.90
20590;DHT22;10453;50.810;12.540;2023-04-24T00:17:35;11.60;99.90
20590;DHT22;10453;50.810;12.540;2023-04-24T00:21:54;11.60;99.90
20590;DHT22;10453;50.810;12.540;2023-04-24T00:26:12;11.50;99.90
20590;DHT22;10453;50.810;12.540;2023-04-24T00:30:30;11.50;99.90
20590;DHT22;10453;50.810;12.540;2023-04-24T00:34:47;11.40;99.90
20590;DHT22;10453;50.810;12.540;2023-04-24T00:39:05;11.40;99.90
20590;DHT22;10453;50.810;12.540;2023-04-24T00:43:23;11.40;99.90
20590;DHT22;10453;50.810;12.540;2023-04-24T00:47:42;11.30;99.90
20590;DHT22;10453;50.810;12.540;2023-04-24T00:51:59;11.30;99.90
20590;DHT22;10453;50.810;12.540;2023-04-24T00:56:16;11.20;99.90
20590;DHT22;10453;50.810;12.540;2023-04-24T01:00:34;11.30;99.90
20590;DHT22;10453;50.810;12.540;2023-04-24T01:04:52;11.30;99.90
20590;DHT22;10453;50.810;12.540;2023-04-24T01:09:10;11.30;99.90
20590;DHT22;10453;50.810;12.540;2023-04-24T01:13:29;11.20;99.90
20590;DHT22;10453;50.810;12.540;2023-04-24T01:17:46;11.30;99.90
20590;DHT22;10453;50.810;12.540;2023-04-24T01:22:12;11.30;99.90
20590;DHT22;10453;50.810;12.540;2023-04-24T01:26:30;11.20;99.90
20590;DHT22;10453;50.810;12.540;2023-04-24T01:30:48;11.30;99.90
20590;DHT22;10453;50.810;12.540;2023-04-24T01:35:06;11.30;99.90
20590;DHT22;10453;50.810;12.540;2023-04-24T01:39:24;11.20;99.90
20590;DHT22;10453;50.810;12.540;2023-04-24T01:43:43;11.20;99.90
20590;DHT22;10453;50.810;12.540;2023-04-24T01:48:00;11.20;99.90
20590;DHT22;10453;50.810;12.540;2023-04-24T01:52:18;11.20;99.90
20590;DHT22;10453;50.810;12.540;2023-04-24T01:56:36;11.20;99.90
20590;DHT22;10453;50.810;12.540;2023-04-24T02:00:56;11.10;99.90
20590;DHT22;10453;50.810;12.540;2023-04-24T02:05:16;11.10;99.90
20590;DHT22;10453;50.810;12.540;2023-04-24T02:09:33;11.10;99.90
20590;DHT22;10453;50.810;12.540;2023-04-24T02:13:52;11.10;99.90
20590;DHT22;10453;50.810;12.540;2023-04-24T02:18:09;11.00;99.90
20590;DHT22;10453;50.810;12.540;2023-04-24T02:22:28;11.00;99.90
20590;DHT22;10453;50.810;12.540;2023-04-24T02:26:46;11.00;99.90
20590;DHT22;10453;50.810;12.540;2023-04-24T02:31:04;11.00;99.90
20590;DHT22;10453;50.810;12.540;2023-04-24T02:35:22;10.90;99.90
20590;DHT22;10453;50.810;12.540;2023-04-24T02:39:40;10.90;99.90
20590;DHT22;10453;50.810;12.540;2023-04-24T02:44:01;10.90;99.90
20590;DHT22;10453;50.810;12.540;2023-04-24T02:48:19;10.80;99.90
20590;DHT22;10453;50.810;12.540;2023-04-24T02:52:38;10.70;99.90
20590;DHT22;10453;50.810;12.540;2023-04-24T02:56:55;10.60;99.90
20590;DHT22;10453;50.810;12.540;2023-04-24T03:01:13;10.60;99.90
20590;DHT22;10453;50.810;12.540;2023-04-24T03:05:31;10.60;99.90
20590;DHT22;10453;50.810;12.540;2023-04-24T03:09:49;10.60;99.90
20590;DHT22;10453;50.810;12.540;2023-04-24T03:14:06;10.70;99.90
20590;DHT22;10453;50.810;12.540;2023-04-24T03:18:24;10.60;99.90
20590;DHT22;10453;50.810;12.540;2023-04-24T03:22:42;10.70;99.90
20590;DHT22;10453;50.810;12.540;2023-04-24T03:26:59;10.70;99.90
20590;DHT22;10453;50.810;12.540;2023-04-24T03:31:17;10.70;99.90
20590;DHT22;10453;50.810;12.540;2023-04-24T03:35:34;10.70;99.90
20590;DHT22;10453;50.810;12.540;2023-04-24T03:39:52;10.70;99.90
20590;DHT22;10453;50.810;12.540;2023-04-24T03:44:09;10.70;99.90
20590;DHT22;10453;50.810;12.540;2023-04-24T03:48:26;10.60;99.90
20590;DHT22;10453;50.810;12.540;2023-04-24T03:52:44;10.60;99.90
20590;DHT22;10453;50.810;12.540;2023-04-24T03:57:01;10.60;99.90
20590;DHT22;10453;50.810;12.540;2023-04-24T04:01:18;10.60;99.90
20590;DHT22;10453;50.810;12.540;2023-04-24T04:05:37;10.60;99.90
20590;DHT22;10453;50.810;12.540;2023-04-24T04:09:55;10.60;99.90
20590;DHT22;10453;50.810;12.540;2023-04-24T04:14:12;10.60;99.90
20590;DHT22;10453;50.810;12.540;2023-04-24T04:18:29;10.70;99.90
20590;DHT22;10453;50.810;12.540;2023-04-24T04:22:46;10.70;99.90
20590;DHT22;10453;50.810;12.540;2023-04-24T04:27:04;10.70;99.90
20590;DHT22;10453;50.810;12.540;2023-04-24T04:31:22;10.70;99.90
20590;DHT22;10453;50.810;12.540;2023-04-24T04:35:40;10.70;99.90
20590;DHT22;10453;50.810;12.540;2023-04-24T04:39:58;10.70;99.90
20590;DHT22;10453;50.810;12.540;2023-04-24T04:44:15;10.80;99.90
20590;DHT22;10453;50.810;12.540;2023-04-24T04:48:33;10.80;99.90
20590;DHT22;10453;50.810;12.540;2023-04-24T04:52:53;10.80;99.90
20590;DHT22;10453;50.810;12.540;2023-04-24T04:57:10;10.80;99.90
20590;DHT22;10453;50.810;12.540;2023-04-24T05:01:28;10.90;99.90
20590;DHT22;10453;50.810;12.540;2023-04-24T05:05:45;10.90;99.90
20590;DHT22;10453;50.810;12.540;2023-04-24T05:10:03;10.90;99.90
20590;DHT22;10453;50.810;12.540;2023-04-24T05:14:20;11.00;99.90
20590;DHT22;10453;50.810;12.540;2023-04-24T05:18:38;11.00;99.90
20590;DHT22;10453;50.810;12.540;2023-04-24T05:22:56;11.00;99.90
20590;DHT22;10453;50.810;12.540;2023-04-24T05:27:14;11.10;99.90
20590;DHT22;10453;50.810;12.540;2023-04-24T05:31:32;11.30;99.90
20590;DHT22;10453;50.810;12.540;2023-04-24T05:35:49;11.30;99.90
20590;DHT22;10453;50.810;12.540;2023-04-24T05:40:07;11.50;99.90
20590;DHT22;10453;50.810;12.540;2023-04-24T05:44:24;11.60;99.90
20590;DHT22;10453;50.810;12.540;2023-04-24T05:48:42;11.60;99.90
20590;DHT22;10453;50.810;12.540;2023-04-24T05:53:00;11.60;99.90
20590;DHT22;10453;50.810;12.540;2023-04-24T05:57:19;11.60;99.90
20590;DHT22;10453;50.810;12.540;2023-04-24T06:01:37;11.70;99.90
20590;DHT22;10453;50.810;12.540;2023-04-24T06:05:54;11.70;99.90
20590;DHT22;10453;50.810;12.540;2023-04-24T06:10:13;11.70;99.90
20590;DHT22;10453;50.810;12.540;2023-04-24T06:14:31;11.80;99.90
20590;DHT22;10453;50.810;12.540;2023-04-24T06:18:48;11.80;99.90
20590;DHT22;10453;50.810;12.540;2023-04-24T06:23:06;11.80;99.90
20590;DHT22;10453;50.810;12.540;2023-04-24T06:27:23;11.90;99.90
20590;DHT22;10453;50.810;12.540;2023-04-24T06:31:41;11.90;99.90
20590;DHT22;10453;50.810;12.540;2023-04-24T06:35:58;12.00;99.90
20590;DHT22;10453;50.810;12.540;2023-04-24T06:40:16;11.80;99.90
20590;DHT22;10453;50.810;12.540;2023-04-24T06:44:36;11.80;99.90
20590;DHT22;10453;50.810;12.540;2023-04-24T06:48:58;11.90;99.90
20590;DHT22;10453;50.810;12.540;2023-04-24T06:53:15;11.90;99.90
20590;DHT22;10453;50.810;12.540;2023-04-24T06:57:33;12.10;99.90
20590;DHT22;10453;50.810;12.540;2023-04-24T07:01:50;12.10;99.90
20590;DHT22;10453;50.810;12.540;2023-04-24T07:06:11;12.20;99.90
20590;DHT22;10453;50.810;12.540;2023-04-24T07:10:29;12.30;99.90
20590;DHT22;10453;50.810;12.540;2023-04-24T07:14:47;12.20;99.90
20590;DHT22;10453;50.810;12.540;2023-04-24T07:19:05;12.40;99.90
20590;DHT22;10453;50.810;12.540;2023-04-24T07:23:23;12.50;99.90
20590;DHT22;10453;50.810;12.540;2023-04-24T07:27:41;12.70;99.90
20590;DHT22;10453;50.810;12.540;2023-04-24T07:31:59;12.80;99.90
20590;DHT22;10453;50.810;12.540;2023-04-24T07:36:19;13.00;99.90
20590;DHT22;10453;50.810;12.540;2023-04-24T07:40:37;13.00;99.90
20590;DHT22;10453;50.810;12.540;2023-04-24T07:44:54;13.20;99.90
20590;DHT22;10453;50.810;12.540;2023-04-24T07:49:12;13.20;99.90
20590;DHT22;10453;50.810;12.540;2023-04-24T07:53:31;13.20;99.90
20590;DHT22;10453;50.810;12.540;2023-04-24T07:57:48;13.50;99.90
20590;DHT22;10453;50.810;12.540;2023-04-24T08:02:06;13.60;99.90
20590;DHT22;10453;50.810;12.540;2023-04-24T08:06:24;13.70;99.90
20590;DHT22;10453;50.810;12.540;2023-04-24T08:10:44;13.80;99.90
20590;DHT22;10453;50.810;12.540;2023-04-24T08:15:03;14.00;99.90
20590;DHT22;10453;50.810;12.540;2023-04-24T08:19:20;14.10;99.90
20590;DHT22;10453;50.810;12.540;2023-04-24T08:23:38;14.20;99.90
20590;DHT22;10453;50.810;12.540;2023-04-24T08:27:55;14.00;99.90
20590;DHT22;10453;50.810;12.540;2023-04-24T08:32:13;14.10;99.90
20590;DHT22;10453;50.810;12.540;2023-04-24T08:36:30;14.10;99.90
20590;DHT22;10453;50.810;12.540;2023-04-24T08:41:02;14.10;99.90
20590;DHT22;10453;50.810;12.540;2023-04-24T08:45:21;14.00;99.90
20590;DHT22;10453;50.810;12.540;2023-04-24T08:49:39;14.30;99.90
20590;DHT22;10453;50.810;12.540;2023-04-24T08:53:57;15.60;99.90
20590;DHT22;10453;50.810;12.540;2023-04-24T08:58:16;15.20;99.90
20590;DHT22;10453;50.810;12.540;2023-04-24T09:02:33;14.60;99.90
20590;DHT22;10453;50.810;12.540;2023-04-24T09:06:55;14.70;99.90
20590;DHT22;10453;50.810;12.540;2023-04-24T09:11:14;15.00;99.90
20590;DHT22;10453;50.810;12.540;2023-04-24T09:15:31;15.20;99.90
20590;DHT22;10453;50.810;12.540;2023-04-24T09:19:50;14.80;99.90
20590;DHT22;10453;50.810;12.540;2023-04-24T09:24:15;14.30;99.90
20590;DHT22;10453;50.810;12.540;2023-04-24T09:28:38;14.90;99.90
20590;DHT22;10453;50.810;12.540;2023-04-24T09:33:12;15.50;99.90
20590;DHT22;10453;50.810;12.540;2023-04-24T09:37:30;15.00;99.90
20590;DHT22;10453;50.810;12.540;2023-04-24T09:41:48;14.60;99.90
20590;DHT22;10453;50.810;12.540;2023-04-24T09:46:07;14.80;99.90
20590;DHT22;10453;50.810;12.540;2023-04-24T09:50:25;14.90;99.90
20590;DHT22;10453;50.810;12.540;2023-04-24T09:54:52;14.70;99.90
20590;DHT22;10453;50.810;12.540;2023-04-24T09:59:12;14.60;99.90
20590;DHT22;10453;50.810;12.540;2023-04-24T10:03:33;14.60;99.90
20590;DHT22;10453;50.810;12.540;2023-04-24T10:07:51;16.10;99.90
20590;DHT22;10453;50.810;12.540;2023-04-24T10:12:08;17.90;99.90
20590;DHT22;10453;50.810;12.540;2023-04-24T10:16:26;17.90;99.90
20590;DHT22;10453;50.810;12.540;2023-04-24T10:20:45;17.30;99.90
20590;DHT22;10453;50.810;12.540;2023-04-24T10:25:04;17.50;99.90
20590;DHT22;10453;50.810;12.540;2023-04-24T10:29:23;17.70;99.90
20590;DHT22;10453;50.810;12.540;2023-04-24T10:33:43;17.00;99.90
20590;DHT22;10453;50.810;12.540;2023-04-24T10:38:05;16.00;97.10
20590;DHT22;10453;50.810;12.540;2023-04-24T10:42:23;15.20;99.20
20590;DHT22;10453;50.810;12.540;2023-04-24T10:46:47;15.00;97.50
20590;DHT22;10453;50.810;12.540;2023-04-24T10:51:13;15.90;96.20
20590;DHT22;10453;50.810;12.540;2023-04-24T11:00:21;15.60;94.60
20590;DHT22;10453;50.810;12.540;2023-04-24T11:04:39;16.00;95.90
20590;DHT22;10453;50.810;12.540;2023-04-24T11:09:10;16.00;92.50
20590;DHT22;10453;50.810;12.540;2023-04-24T11:18:16;15.00;93.60
20590;DHT22;10453;50.810;12.540;2023-04-24T11:22:35;14.70;94.80
20590;DHT22;10453;50.810;12.540;2023-04-24T11:27:05;15.20;97.10
20590;DHT22;10453;50.810;12.540;2023-04-24T11:31:40;15.70;96.70
20590;DHT22;10453;50.810;12.540;2023-04-24T11:35:59;15.20;93.80
20590;DHT22;10453;50.810;12.540;2023-04-24T11:40:18;15.10;94.00
20590;DHT22;10453;50.810;12.540;2023-04-24T11:44:41;15.10;90.00
20590;DHT22;10453;50.810;12.540;2023-04-24T11:48:59;14.80;90.30
20590;DHT22;10453;50.810;12.540;2023-04-24T11:53:19;15.60;85.50
20590;DHT22;10453;50.810;12.540;2023-04-24T11:57:38;17.80;79.10
20590;DHT22;10453;50.810;12.540;2023-04-24T12:01:56;17.30;77.90
20590;DHT22;10453;50.810;12.540;2023-04-24T12:06:13;16.20;84.60
20590;DHT22;10453;50.810;12.540;2023-04-24T12:10:32;15.70;88.30
20590;DHT22;10453;50.810;12.540;2023-04-24T12:14:53;16.40;86.20
20590;DHT22;10453;50.810;12.540;2023-04-24T12:19:10;18.10;84.90
20590;DHT22;10453;50.810;12.540;2023-04-24T12:23:34;19.20;78.80
20590;DHT22;10453;50.810;12.540;2023-04-24T12:32:22;19.50;76.40
20590;DHT22;10453;50.810;12.540;2023-04-24T12:36:39;18.30;76.30
20590;DHT22;10453;50.810;12.540;2023-04-24T12:41:09;18.50;79.30
20590;DHT22;10453;50.810;12.540;2023-04-24T12:45:26;17.50;75.20
20590;DHT22;10453;50.810;12.540;2023-04-24T12:49:44;17.10;78.70
20590;DHT22;10453;50.810;12.540;2023-04-24T12:54:02;17.80;77.10
20590;DHT22;10453;50.810;12.540;2023-04-24T12:58:20;17.70;75.60
20590;DHT22;10453;50.810;12.540;2023-04-24T13:02:38;16.30;77.10
20590;DHT22;10453;50.810;12.540;2023-04-24T13:06:55;15.40;81.20
20590;DHT22;10453;50.810;12.540;2023-04-24T13:11:13;15.80;78.60
20590;DHT22;10453;50.810;12.540;2023-04-24T13:15:30;16.00;78.20
20590;DHT22;10453;50.810;12.540;2023-04-24T13:19:50;16.50;78.70
20590;DHT22;10453;50.810;12.540;2023-04-24T13:24:08;16.20;79.40
20590;DHT22;10453;50.810;12.540;2023-04-24T13:28:26;16.30;84.70
20590;DHT22;10453;50.810;12.540;2023-04-24T13:32:44;16.40;87.00
20590;DHT22;10453;50.810;12.540;2023-04-24T13:37:03;15.90;87.80
20590;DHT22;10453;50.810;12.540;2023-04-24T13:41:20;16.10;76.90
20590;DHT22;10453;50.810;12.540;2023-04-24T13:45:38;16.20;74.00
20590;DHT22;10453;50.810;12.540;2023-04-24T13:49:58;16.20;76.80
20590;DHT22;10453;50.810;12.540;2023-04-24T13:54:16;15.90;72.20
20590;DHT22;10453;50.810;12.540;2023-04-24T13:58:33;16.40;73.20
20590;DHT22;10453;50.810;12.540;2023-04-24T14:02:53;17.00;73.00
20590;DHT22;10453;50.810;12.540;2023-04-24T14:07:10;17.40;73.90
20590;DHT22;10453;50.810;12.540;2023-04-24T14:11:28;16.40;71.50
20590;DHT22;10453;50.810;12.540;2023-04-24T14:15:46;15.60;73.10
20590;DHT22;10453;50.810;12.540;2023-04-24T14:20:04;15.50;74.90
20590;DHT22;10453;50.810;12.540;2023-04-24T14:24:22;15.50;77.30
20590;DHT22;10453;50.810;12.540;2023-04-24T14:28:39;15.50;76.60
20590;DHT22;10453;50.810;12.540;2023-04-24T14:32:57;15.50;77.80
20590;DHT22;10453;50.810;12.540;2023-04-24T14:37:16;16.90;75.30
20590;DHT22;10453;50.810;12.540;2023-04-24T14:41:33;16.50;75.70
20590;DHT22;10453;50.810;12.540;2023-04-24T14:45:53;16.10;76.00
20590;DHT22;10453;50.810;12.540;2023-04-24T14:50:11;16.00;77.50
20590;DHT22;10453;50.810;12.540;2023-04-24T14:54:32;16.10;76.70
20590;DHT22;10453;50.810;12.540;2023-04-24T14:58:49;18.10;73.80
20590;DHT22;10453;50.810;12.540;2023-04-24T15:03:07;18.40;69.70
20590;DHT22;10453;50.810;12.540;2023-04-24T15:07:25;18.90;70.90
20590;DHT22;10453;50.810;12.540;2023-04-24T15:11:42;17.30;69.50
20590;DHT22;10453;50.810;12.540;2023-04-24T15:16:00;15.20;75.20
20590;DHT22;10453;50.810;12.540;2023-04-24T15:20:17;14.40;77.60
20590;DHT22;10453;50.810;12.540;2023-04-24T15:24:35;14.00;81.00
20590;DHT22;10453;50.810;12.540;2023-04-24T15:28:52;13.70;85.20
20590;DHT22;10453;50.810;12.540;2023-04-24T15:33:10;13.50;87.70
20590;DHT22;10453;50.810;12.540;2023-04-24T15:37:27;13.00;92.80
20590;DHT22;10453;50.810;12.540;2023-04-24T15:41:44;12.60;98.10
20590;DHT22;10453;50.810;12.540;2023-04-24T15:46:03;13.00;99.90
20590;DHT22;10453;50.810;12.540;2023-04-24T15:50:22;13.90;99.90
20590;DHT22;10453;50.810;12.540;2023-04-24T15:54:40;13.60;99.90
20590;DHT22;10453;50.810;12.540;2023-04-24T15:58:57;13.20;99.90
20590;DHT22;10453;50.810;12.540;2023-04-24T16:03:16;13.10;99.90
20590;DHT22;10453;50.810;12.540;2023-04-24T16:07:34;12.90;99.90
20590;DHT22;10453;50.810;12.540;2023-04-24T16:11:52;13.20;99.90
20590;DHT22;10453;50.810;12.540;2023-04-24T16:16:10;13.50;99.90
20590;DHT22;10453;50.810;12.540;2023-04-24T16:20:27;13.90;99.90
20590;DHT22;10453;50.810;12.540;2023-04-24T16:24:45;13.80;99.90
20590;DHT22;10453;50.810;12.540;2023-04-24T16:29:04;13.10;99.90
20590;DHT22;10453;50.810;12.540;2023-04-24T16:33:22;12.90;99.90
20590;DHT22;10453;50.810;12.540;2023-04-24T16:37:39;12.70;99.90
20590;DHT22;10453;50.810;12.540;2023-04-24T16:41:58;12.40;99.90
20590;DHT22;10453;50.810;12.540;2023-04-24T16:46:18;12.40;99.90
20590;DHT22;10453;50.810;12.540;2023-04-24T16:50:36;12.30;99.90
20590;DHT22;10453;50.810;12.540;2023-04-24T16:54:54;12.30;99.90
20590;DHT22;10453;50.810;12.540;2023-04-24T16:59:11;12.40;99.90
20590;DHT22;10453;50.810;12.540;2023-04-24T17:03:28;12.30;99.90
20590;DHT22;10453;50.810;12.540;2023-04-24T17:07:46;12.20;99.90
20590;DHT22;10453;50.810;12.540;2023-04-24T17:12:03;12.30;99.90
20590;DHT22;10453;50.810;12.540;2023-04-24T17:16:21;12.30;99.90
20590;DHT22;10453;50.810;12.540;2023-04-24T17:20:38;12.30;99.90
20590;DHT22;10453;50.810;12.540;2023-04-24T17:24:56;12.20;99.90
20590;DHT22;10453;50.810;12.540;2023-04-24T17:29:13;12.20;99.90
20590;DHT22;10453;50.810;12.540;2023-04-24T17:33:31;12.20;99.90
20590;DHT22;10453;50.810;12.540;2023-04-24T17:37:49;12.10;99.90
20590;DHT22;10453;50.810;12.540;2023-04-24T17:42:06;12.10;99.90
20590;DHT22;10453;50.810;12.540;2023-04-24T17:46:24;11.90;99.90
20590;DHT22;10453;50.810;12.540;2023-04-24T17:50:41;11.70;99.90
20590;DHT22;10453;50.810;12.540;2023-04-24T17:54:59;11.30;99.90
20590;DHT22;10453;50.810;12.540;2023-04-24T17:59:18;11.00;99.90
20590;DHT22;10453;50.810;12.540;2023-04-24T18:03:35;11.00;99.90
20590;DHT22;10453;50.810;12.540;2023-04-24T18:07:53;10.80;99.90
20590;DHT22;10453;50.810;12.540;2023-04-24T18:12:11;10.70;99.90
20590;DHT22;10453;50.810;12.540;2023-04-24T18:16:29;10.40;99.90
20590;DHT22;10453;50.810;12.540;2023-04-24T18:20:46;10.30;99.90
20590;DHT22;10453;50.810;12.540;2023-04-24T18:25:04;10.20;99.90
20590;DHT22;10453;50.810;12.540;2023-04-24T18:29:22;10.30;99.90
20590;DHT22;10453;50.810;12.540;2023-04-24T18:33:39;10.30;99.90
20590;DHT22;10453;50.810;12.540;2023-04-24T18:37:56;10.30;99.90
20590;DHT22;10453;50.810;12.540;2023-04-24T18:42:13;10.20;99.90
20590;DHT22;10453;50.810;12.540;2023-04-24T18:46:31;10.20;99.90
20590;DHT22;10453;50.810;12.540;2023-04-24T18:50:54;10.20;99.90
20590;DHT22;10453;50.810;12.540;2023-04-24T18:55:11;10.20;99.90
20590;DHT22;10453;50.810;12.540;2023-04-24T18:59:28;10.20;99.90
20590;DHT22;10453;50.810;12.540;2023-04-24T19:03:46;10.10;99.90
20590;DHT22;10453;50.810;12.540;2023-04-24T19:08:03;10.10;99.90
20590;DHT22;10453;50.810;12.540;2023-04-24T19:12:21;10.00;99.90
20590;DHT22;10453;50.810;12.540;2023-04-24T19:16:39;10.00;99.90
20590;DHT22;10453;50.810;12.540;2023-04-24T19:20:56;9.90;99.90
20590;DHT22;10453;50.810;12.540;2023-04-24T19:25:15;9.90;99.90
20590;DHT22;10453;50.810;12.540;2023-04-24T19:29:32;9.80;99.90
20590;DHT22;10453;50.810;12.540;2023-04-24T19:33:50;9.80;99.90
20590;DHT22;10453;50.810;12.540;2023-04-24T19:38:07;9.90;99.90
20590;DHT22;10453;50.810;12.540;2023-04-24T19:42:24;10.00;99.90
20590;DHT22;10453;50.810;12.540;2023-04-24T19:46:59;9.90;99.90
20590;DHT22;10453;50.810;12.540;2023-04-24T19:51:18;9.90;99.90
20590;DHT22;10453;50.810;12.540;2023-04-24T19:55:35;9.80;99.90
20590;DHT22;10453;50.810;12.540;2023-04-24T19:59:54;9.70;99.90
20590;DHT22;10453;50.810;12.540;2023-04-24T20:04:11;9.40;99.90
20590;DHT22;10453;50.810;12.540;2023-04-24T20:08:29;9.30;99.90
20590;DHT22;10453;50.810;12.540;2023-04-24T20:12:46;9.10;99.90
20590;DHT22;10453;50.810;12.540;2023-04-24T20:17:03;8.90;99.90
20590;DHT22;10453;50.810;12.540;2023-04-24T20:21:22;8.80;99.90
20590;DHT22;10453;50.810;12.540;2023-04-24T20:25:39;8.70;99.90
20590;DHT22;10453;50.810;12.540;2023-04-24T20:29:57;8.70;99.90
20590;DHT22;10453;50.810;12.540;2023-04-24T20:34:15;8.80;99.90
20590;DHT22;10453;50.810;12.540;2023-04-24T20:38:34;8.80;99.90
20590;DHT22;10453;50.810;12.540;2023-04-24T20:42:51;8.90;99.90
20590;DHT22;10453;50.810;12.540;2023-04-24T20:47:09;8.60;99.90
20590;DHT22;10453;50.810;12.540;2023-04-24T20:51:28;8.50;99.90
20590;DHT22;10453;50.810;12.540;2023-04-24T20:55:46;8.60;99.90
20590;DHT22;10453;50.810;12.540;2023-04-24T21:00:04;8.70;99.90
20590;DHT22;10453;50.810;12.540;2023-04-24T21:04:24;8.80;99.90
20590;DHT22;10453;50.810;12.540;2023-04-24T21:08:42;8.70;99.90
20590;DHT22;10453;50.810;12.540;2023-04-24T21:12:59;8.70;99.90
20590;DHT22;10453;50.810;12.540;2023-04-24T21:17:17;8.70;99.90
20590;DHT22;10453;50.810;12.540;2023-04-24T21:21:35;8.60;99.90
20590;DHT22;10453;50.810;12.540;2023-04-24T21:25:52;8.50;99.90
20590;DHT22;10453;50.810;12.540;2023-04-24T21:30:10;8.30;99.90
20590;DHT22;10453;50.810;12.540;2023-04-24T21:34:30;8.20;99.90
20590;DHT22;10453;50.810;12.540;2023-04-24T21:38:47;8.10;99.90
20590;DHT22;10453;50.810;12.540;2023-04-24T21:43:04;7.90;99.90
20590;DHT22;10453;50.810;12.540;2023-04-24T21:47:23;7.90;99.90
20590;DHT22;10453;50.810;12.540;2023-04-24T21:51:40;7.80;99.90
20590;DHT22;10453;50.810;12.540;2023-04-24T21:55:58;7.70;99.90
20590;DHT22;10453;50.810;12.540;2023-04-24T22:00:16;7.70;99.90
20590;DHT22;10453;50.810;12.540;2023-04-24T22:04:33;7.60;99.90
20590;DHT22;10453;50.810;12.540;2023-04-24T22:08:51;7.60;99.90
20590;DHT22;10453;50.810;12.540;2023-04-24T22:13:09;7.50;99.90
20590;DHT22;10453;50.810;12.540;2023-04-24T22:17:27;7.40;99.90
20590;DHT22;10453;50.810;12.540;2023-04-24T22:21:44;7.30;99.90
20590;DHT22;10453;50.810;12.540;2023-04-24T22:26:02;7.20;99.90
20590;DHT22;10453;50.810;12.540;2023-04-24T22:30:19;7.10;99.90
20590;DHT22;10453;50.810;12.540;2023-04-24T22:34:37;7.00;99.90
20590;DHT22;10453;50.810;12.540;2023-04-24T22:38:54;7.00;99.90
20590;DHT22;10453;50.810;12.540;2023-04-24T22:43:12;6.90;99.90
20590;DHT22;10453;50.810;12.540;2023-04-24T22:47:29;6.90;99.90
20590;DHT22;10453;50.810;12.540;2023-04-24T22:51:47;6.80;99.90
20590;DHT22;10453;50.810;12.540;2023-04-24T22:56:05;6.70;99.90
20590;DHT22;10453;50.810;12.540;2023-04-24T23:00:22;6.60;99.90
20590;DHT22;10453;50.810;12.540;2023-04-24T23:04:40;6.60;99.90
20590;DHT22;10453;50.810;12.540;2023-04-24T23:08:57;6.50;99.90
20590;DHT22;10453;50.810;12.540;2023-04-24T23:13:14;6.30;99.90
20590;DHT22;10453;50.810;12.540;2023-04-24T23:17:32;6.20;99.90
20590;DHT22;10453;50.810;12.540;2023-04-24T23:21:50;6.20;99.90
20590;DHT22;10453;50.810;12.540;2023-04-24T23:26:07;6.10;99.90
20590;DHT22;10453;50.810;12.540;2023-04-24T23:30:24;6.00;99.90
20590;DHT22;10453;50.810;12.540;2023-04-24T23:34:42;6.00;99.90
20590;DHT22;10453;50.810;12.540;2023-04-24T23:39:00;5.90;99.90
20590;DHT22;10453;50.810;12.540;2023-04-24T23:43:17;5.80;99.90
20590;DHT22;10453;50.810;12.540;2023-04-24T23:47:36;5.80;99.90
20590;DHT22;10453;50.810;12.540;2023-04-24T23:51:53;5.90;99.90
20590;DHT22;10453;50.810;12.540;2023-04-24T23:56:12;5.90;99.90
